Hlavní strana
METAR-TAF:

METAR-TAF

Letiště :

Namsos, Norsko

zeměpisná šířka: 64-28N, zeměpisná délka: 011-35E, výška: 0 m

Aktuální stav počasí

Zpráva byla vytvořena před 35 minutami, v 17:20 UTC
vítr z různých směrů 1 kt
Teplota -1°C
Vlhkost vzduchu 86%
Tlak 1020 hPa
Viditelnost 10 km a více
Skoro jasno ve výšce 2000 ft
přeháňky v blízkosti

METAR: ENNM 071720Z VRB01KT 9999 VCSH FEW020 M01/M03 Q1020

Čas: 18:55 (17:55 UTC)


TAF: chybějící

Stav a předpovědi počasí z více než 4 000 letišť (zprávy METAR a TAF).

Červené a žluté tečky na mapě představují dostupné meteorologické stanice.

Když kurzor umístíte na tečku, zobrazí se název stanice.

Pak kliknutím zobrazíte stav a předpověď počasí.

Chcete-li změnit mapu, kliknutím na zelené tlačítko se znaménkem +mapu přiblížíte, kliknutím na zelené tlačítko se znaménkem – mapu oddálíte a kliknutím na zelené šipky přejdete na sousední mapy.


METAR-TAF: